Time;durP1;ratioP1;P1;durP2;ratioP2;P2;SDS_P1;SDS_P2;PMS_P1;PMS_P2;Temp;Humidity;BMP_temperature;BMP_pressure;BME280_temperature;BME280_humidity;BME280_pressure;Samples;Min_cycle;Max_cycle;Signal;HPM_P1;HPM_P2
2022/02/28 00:00:52;;;;;;;5.60;4.32;;;6.20;66.80;;;;;;2099620;28;20063;-68
2022/02/28 00:01:52;;;;;;;5.65;4.38;;;6.20;66.40;;;;;;2102185;28;20056;-68
2022/02/28 00:02:53;;;;;;;5.32;4.13;;;6.10;66.50;;;;;;2105198;28;20028;-68
2022/02/28 00:03:56;;;;;;;7.35;4.55;;;6.10;66.50;;;;;;2103659;28;20059;-68
2022/02/28 00:04:56;;;;;;;6.78;4.25;;;6.10;66.70;;;;;;2104098;28;20026;-68
2022/02/28 00:05:57;;;;;;;5.97;4.28;;;6.10;66.90;;;;;;2101378;28;20031;-68
2022/02/28 00:06:58;;;;;;;6.07;4.18;;;6.10;66.60;;;;;;2101544;28;20021;-68
2022/02/28 00:07:59;;;;;;;6.43;3.75;;;6.10;66.40;;;;;;2104203;28;20031;-68
2022/02/28 00:08:59;;;;;;;6.07;4.20;;;6.10;66.30;;;;;;2103873;28;20039;-68
2022/02/28 00:10:00;;;;;;;5.90;4.40;;;6.10;66.10;;;;;;2102724;28;20094;-68
2022/02/28 00:11:00;;;;;;;5.53;3.97;;;6.10;66.20;;;;;;2106070;28;20020;-69
2022/02/28 00:12:01;;;;;;;5.38;4.72;;;6.10;66.20;;;;;;2105803;28;20032;-68
2022/02/28 00:13:02;;;;;;;5.65;4.55;;;6.10;66.30;;;;;;2103648;28;20032;-68
2022/02/28 00:14:03;;;;;;;5.13;4.20;;;6.10;66.40;;;;;;2101923;28;20020;-68
2022/02/28 00:15:05;;;;;;;5.72;4.68;;;6.10;66.70;;;;;;2103886;28;20056;-68
2022/02/28 00:16:06;;;;;;;5.28;4.53;;;6.10;66.50;;;;;;2105045;28;20027;-68
2022/02/28 00:17:07;;;;;;;6.63;4.57;;;6.10;66.50;;;;;;2103799;28;20036;-68
2022/02/28 00:18:08;;;;;;;6.05;4.30;;;6.00;66.60;;;;;;2101287;28;20480;-68
2022/02/28 00:19:08;;;;;;;5.72;4.47;;;6.10;66.80;;;;;;2103892;28;20432;-68
2022/02/28 00:20:13;;;;;;;5.78;5.18;;;6.10;66.70;;;;;;2102822;28;20035;-68
2022/02/28 00:21:13;;;;;;;6.00;4.50;;;6.10;66.70;;;;;;2104480;28;20704;-68
2022/02/28 00:22:14;;;;;;;6.97;5.13;;;6.00;66.80;;;;;;2106634;28;20442;-68
2022/02/28 00:23:15;;;;;;;7.70;5.03;;;6.00;66.90;;;;;;2104631;28;20075;-68
2022/02/28 00:24:15;;;;;;;6.32;4.68;;;6.00;67.00;;;;;;2100646;28;20058;-68
2022/02/28 00:25:16;;;;;;;6.68;5.20;;;6.00;66.90;;;;;;2107138;28;20102;-68
2022/02/28 00:26:17;;;;;;;5.47;4.55;;;6.00;66.80;;;;;;2102649;28;20032;-68
2022/02/28 00:27:17;;;;;;;6.70;4.47;;;6.00;66.80;;;;;;2101984;28;20024;-68
2022/02/28 00:28:18;;;;;;;5.90;4.60;;;6.00;66.50;;;;;;2106146;28;20571;-68
2022/02/28 00:29:18;;;;;;;5.15;4.60;;;6.00;66.50;;;;;;2105341;28;20023;-68
2022/02/28 00:30:19;;;;;;;8.60;5.00;;;6.00;66.50;;;;;;2104824;28;20032;-68
2022/02/28 00:31:19;;;;;;;5.13;4.63;;;5.90;66.40;;;;;;2103451;28;20036;-68
2022/02/28 00:32:21;;;;;;;6.28;4.65;;;5.90;66.50;;;;;;2102840;28;20032;-68
2022/02/28 00:33:22;;;;;;;6.78;5.05;;;5.90;66.90;;;;;;2105585;28;20031;-68
2022/02/28 00:34:22;;;;;;;7.82;5.07;;;5.90;66.70;;;;;;2103683;28;20036;-68
2022/02/28 00:35:23;;;;;;;9.68;5.38;;;5.90;66.60;;;;;;2100944;28;20031;-68
2022/02/28 00:36:26;;;;;;;7.50;5.28;;;5.90;66.70;;;;;;2101484;28;20048;-68
2022/02/28 00:37:26;;;;;;;5.88;4.72;;;5.90;66.90;;;;;;2100869;28;20085;-68
2022/02/28 00:38:27;;;;;;;6.78;4.85;;;5.90;66.90;;;;;;2104016;28;20032;-68
2022/02/28 00:39:28;;;;;;;5.95;4.68;;;5.90;67.00;;;;;;2103867;28;20077;-68
2022/02/28 00:40:28;;;;;;;6.65;5.13;;;5.90;67.10;;;;;;2102445;28;20965;-68
2022/02/28 00:41:29;;;;;;;6.15;5.10;;;5.90;67.40;;;;;;2105508;28;20193;-68
2022/02/28 00:42:29;;;;;;;8.07;5.15;;;5.90;67.50;;;;;;2101257;28;20131;-68
2022/02/28 00:43:30;;;;;;;5.97;4.68;;;5.80;67.40;;;;;;2107594;28;20530;-68
2022/02/28 00:44:31;;;;;;;7.63;4.78;;;5.80;67.70;;;;;;2103560;28;20028;-68
2022/02/28 00:45:32;;;;;;;5.82;4.60;;;5.80;68.00;;;;;;2102967;28;20455;-68
2022/02/28 00:46:32;;;;;;;7.20;4.65;;;5.70;68.10;;;;;;2108162;28;20050;-68
2022/02/28 00:47:33;;;;;;;5.38;4.47;;;5.70;68.40;;;;;;2101928;28;20021;-68
2022/02/28 00:48:33;;;;;;;7.25;4.80;;;5.70;68.70;;;;;;2099262;28;20020;-68
2022/02/28 00:49:35;;;;;;;5.32;4.82;;;5.70;68.60;;;;;;2104519;28;20020;-69
2022/02/28 00:50:35;;;;;;;6.10;5.00;;;5.60;68.50;;;;;;2101184;28;20024;-68
2022/02/28 00:51:36;;;;;;;6.57;4.80;;;5.60;68.30;;;;;;2107033;28;20361;-68
2022/02/28 00:52:37;;;;;;;5.10;4.57;;;5.60;68.10;;;;;;2102788;28;20023;-69
2022/02/28 00:53:37;;;;;;;6.78;4.82;;;5.60;68.10;;;;;;2103614;28;20015;-68
2022/02/28 00:54:38;;;;;;;7.30;4.90;;;5.60;68.20;;;;;;2109584;28;20093;-68
2022/02/28 00:55:39;;;;;;;6.35;4.93;;;5.60;68.30;;;;;;2103839;28;20048;-68
2022/02/28 00:56:39;;;;;;;5.88;4.82;;;5.60;69.10;;;;;;2103869;28;20420;-68
2022/02/28 00:57:40;;;;;;;8.90;5.13;;;5.60;68.40;;;;;;2106631;28;20035;-68
2022/02/28 00:58:41;;;;;;;5.78;5.05;;;5.60;69.20;;;;;;2100900;28;20078;-68
2022/02/28 00:59:41;;;;;;;5.97;5.05;;;5.60;68.60;;;;;;2106010;28;20020;-68
2022/02/28 01:00:42;;;;;;;6.47;4.85;;;5.50;68.70;;;;;;2104149;28;20050;-68
2022/02/28 01:01:42;;;;;;;8.63;5.00;;;5.50;68.90;;;;;;2103490;28;20029;-68
2022/02/28 01:02:45;;;;;;;6.15;5.15;;;5.50;68.90;;;;;;2106507;28;20024;-68
2022/02/28 01:03:46;;;;;;;7.13;5.22;;;5.50;69.10;;;;;;2104379;28;20467;-68
2022/02/28 01:04:48;;;;;;;7.60;5.57;;;5.50;69.80;;;;;;2101799;28;20027;-68
2022/02/28 01:05:48;;;;;;;5.95;4.55;;;5.50;70.20;;;;;;2104899;28;20012;-68
2022/02/28 01:06:49;;;;;;;6.05;4.90;;;5.40;70.00;;;;;;2101211;28;20101;-68
2022/02/28 01:07:50;;;;;;;5.93;5.30;;;5.50;70.30;;;;;;2099252;28;20028;-68
2022/02/28 01:08:50;;;;;;;7.05;5.07;;;5.40;70.60;;;;;;2103424;28;20023;-68
2022/02/28 01:09:51;;;;;;;5.95;4.47;;;5.40;70.70;;;;;;2103777;28;20024;-68
2022/02/28 01:10:52;;;;;;;7.30;4.55;;;5.40;70.90;;;;;;2106022;28;20461;-68
2022/02/28 01:11:53;;;;;;;5.40;4.68;;;5.40;71.00;;;;;;2103890;28;20493;-68
2022/02/28 01:12:54;;;;;;;5.80;4.88;;;5.30;71.40;;;;;;2106067;28;20051;-68
2022/02/28 01:13:55;;;;;;;8.65;5.15;;;5.30;71.50;;;;;;2102490;28;20125;-68
2022/02/28 01:14:55;;;;;;;7.50;5.25;;;5.30;71.20;;;;;;2100045;28;20047;-68
2022/02/28 01:15:56;;;;;;;6.85;5.38;;;5.30;71.00;;;;;;2102880;28;20066;-68
2022/02/28 01:16:56;;;;;;;4.97;4.50;;;5.20;70.90;;;;;;2103544;28;20023;-68
2022/02/28 01:17:57;;;;;;;6.60;5.00;;;5.20;71.20;;;;;;2102749;28;20028;-68
2022/02/28 01:18:58;;;;;;;5.93;4.90;;;5.20;71.20;;;;;;2104185;28;20035;-68
2022/02/28 01:19:58;;;;;;;7.80;5.57;;;5.10;71.00;;;;;;2102992;28;20035;-68
2022/02/28 01:20:59;;;;;;;6.78;5.30;;;5.10;71.10;;;;;;2105026;28;20107;-68
2022/02/28 01:22:00;;;;;;;5.40;4.68;;;5.10;71.20;;;;;;2101574;28;20044;-68
2022/02/28 01:23:00;;;;;;;9.55;5.90;;;5.10;71.80;;;;;;2100224;28;20028;-68
2022/02/28 01:24:01;;;;;;;6.78;5.30;;;5.10;72.20;;;;;;2105842;28;20035;-68
2022/02/28 01:25:02;;;;;;;7.13;5.55;;;5.00;72.70;;;;;;2102155;28;20031;-68
2022/02/28 01:26:03;;;;;;;6.20;4.82;;;5.00;72.60;;;;;;2102553;28;20028;-68
2022/02/28 01:27:04;;;;;;;7.40;4.90;;;5.00;72.90;;;;;;2103848;28;20055;-68
2022/02/28 01:28:05;;;;;;;5.28;4.60;;;5.00;73.20;;;;;;2103024;28;20031;-68
2022/02/28 01:29:05;;;;;;;9.15;5.65;;;4.90;73.00;;;;;;2103771;28;20517;-68
2022/02/28 01:30:08;;;;;;;6.93;5.30;;;4.90;73.10;;;;;;2106849;28;20051;-68
2022/02/28 01:31:08;;;;;;;6.63;4.93;;;4.90;73.50;;;;;;2102049;28;20027;-68
2022/02/28 01:32:09;;;;;;;6.35;5.22;;;4.90;73.70;;;;;;2104736;28;20056;-68
2022/02/28 01:33:10;;;;;;;6.85;5.60;;;4.80;73.50;;;;;;2103468;28;20040;-68
2022/02/28 01:34:11;;;;;;;7.32;5.57;;;4.80;73.80;;;;;;2103067;28;20124;-68
2022/02/28 01:35:12;;;;;;;8.77;5.43;;;4.80;74.10;;;;;;2104196;28;20036;-68
2022/02/28 01:36:12;;;;;;;7.22;4.88;;;4.70;74.30;;;;;;2102928;28;20112;-68
2022/02/28 01:37:13;;;;;;;6.68;4.90;;;4.70;74.50;;;;;;2103551;28;20039;-68
2022/02/28 01:38:14;;;;;;;7.60;4.78;;;4.70;74.50;;;;;;2106834;28;20035;-68
2022/02/28 01:39:14;;;;;;;7.13;5.25;;;4.70;74.90;;;;;;2101179;28;20024;-68
2022/02/28 01:40:15;;;;;;;7.30;5.13;;;4.60;74.90;;;;;;2104550;28;20035;-68
2022/02/28 01:41:16;;;;;;;6.03;5.20;;;4.70;75.30;;;;;;2105932;28;20147;-68
2022/02/28 01:42:17;;;;;;;8.85;5.43;;;4.70;75.50;;;;;;2103167;28;20454;-68
2022/02/28 01:43:17;;;;;;;6.50;4.70;;;4.60;75.40;;;;;;2102975;28;20024;-68
2022/02/28 01:44:18;;;;;;;7.45;5.30;;;4.60;75.60;;;;;;2103556;28;20329;-68
2022/02/28 01:45:23;;;;;;;7.55;5.60;;;4.60;75.50;;;;;;2102270;28;20024;-68
2022/02/28 01:46:24;;;;;;;7.60;5.65;;;4.60;75.60;;;;;;2104568;28;20024;-68
2022/02/28 01:47:24;;;;;;;7.47;5.03;;;4.50;75.90;;;;;;2098642;28;20017;-68
2022/02/28 01:48:25;;;;;;;7.07;5.60;;;4.50;76.20;;;;;;2096010;28;20028;-68
2022/02/28 01:49:25;;;;;;;7.45;5.82;;;4.50;76.00;;;;;;2105458;28;20472;-68
2022/02/28 01:50:27;;;;;;;7.20;5.53;;;4.50;76.00;;;;;;2102177;28;20051;-68
2022/02/28 01:51:28;;;;;;;7.60;5.43;;;4.40;76.50;;;;;;2101953;28;20035;-68
2022/02/28 01:52:28;;;;;;;6.05;5.22;;;4.40;77.20;;;;;;2103456;28;20047;-68
2022/02/28 01:53:29;;;;;;;5.88;5.18;;;4.40;78.00;;;;;;2100718;28;20029;-68
2022/02/28 01:54:30;;;;;;;6.10;5.30;;;4.40;78.50;;;;;;2105200;28;20032;-68
2022/02/28 01:55:31;;;;;;;6.20;4.80;;;4.30;78.50;;;;;;2100040;28;20028;-68
2022/02/28 01:56:32;;;;;;;9.10;5.63;;;4.30;78.70;;;;;;2107095;28;20027;-68
2022/02/28 01:57:32;;;;;;;6.57;5.55;;;4.30;78.70;;;;;;2107067;28;20026;-68
2022/02/28 01:58:38;;;;;;;6.85;5.00;;;4.30;78.70;;;;;;2102351;28;20020;-68
2022/02/28 01:59:38;;;;;;;7.00;5.43;;;4.30;79.10;;;;;;2107140;28;20023;-68
2022/02/28 02:00:39;;;;;;;5.88;4.90;;;4.20;79.00;;;;;;2102273;28;20079;-68
2022/02/28 02:01:40;;;;;;;6.55;5.05;;;4.20;79.30;;;;;;2100647;28;20028;-68
2022/02/28 02:02:41;;;;;;;5.80;5.18;;;4.20;79.50;;;;;;2103056;28;20856;-68
2022/02/28 02:03:41;;;;;;;8.60;5.68;;;4.10;79.70;;;;;;2104392;28;20020;-68
2022/02/28 02:04:42;;;;;;;6.60;5.55;;;4.10;79.80;;;;;;2104453;28;20059;-68
2022/02/28 02:05:45;;;;;;;10.88;6.07;;;4.10;80.00;;;;;;2096928;28;20021;-68
2022/02/28 02:06:46;;;;;;;8.10;5.57;;;4.10;80.10;;;;;;2104886;28;20027;-68
2022/02/28 02:07:47;;;;;;;8.05;5.45;;;4.00;80.30;;;;;;2107654;28;20020;-68
2022/02/28 02:08:48;;;;;;;6.88;5.50;;;4.00;80.90;;;;;;2102161;28;20098;-68
2022/02/28 02:09:49;;;;;;;7.97;5.78;;;4.00;81.20;;;;;;2100809;28;20031;-68
2022/02/28 02:10:50;;;;;;;8.23;5.32;;;4.00;81.30;;;;;;2105923;28;20035;-68
2022/02/28 02:11:51;;;;;;;5.85;5.25;;;3.90;81.40;;;;;;2099970;28;20074;-68
2022/02/28 02:12:52;;;;;;;8.20;5.75;;;3.90;81.20;;;;;;2102440;28;20550;-68
2022/02/28 02:13:53;;;;;;;10.90;5.85;;;3.90;81.50;;;;;;2100702;28;20036;-68
2022/02/28 02:14:55;;;;;;;8.55;5.30;;;3.80;81.90;;;;;;2101984;28;20038;-68
2022/02/28 02:15:56;;;;;;;6.30;4.93;;;3.80;81.90;;;;;;2104480;28;20028;-68
2022/02/28 02:16:56;;;;;;;7.10;5.70;;;3.80;82.30;;;;;;2103655;28;20058;-67
2022/02/28 02:17:58;;;;;;;6.40;5.60;;;3.80;82.90;;;;;;2100085;28;20035;-68
2022/02/28 02:18:58;;;;;;;5.30;4.80;;;3.70;83.20;;;;;;2104155;28;20024;-68
2022/02/28 02:20:03;;;;;;;5.93;5.13;;;3.70;83.20;;;;;;2102481;28;20114;-68
2022/02/28 02:21:04;;;;;;;6.95;4.97;;;3.70;84.20;;;;;;2102346;28;20077;-67
2022/02/28 02:22:06;;;;;;;8.10;5.65;;;3.70;84.00;;;;;;2104011;28;20040;-68
2022/02/28 02:23:12;;;;;;;8.10;5.63;;;3.70;84.20;;;;;;2096329;28;20110;-67
2022/02/28 02:24:12;;;;;;;7.80;5.95;;;3.60;84.20;;;;;;2102481;28;20032;-67
2022/02/28 02:25:14;;;;;;;8.30;6.03;;;3.60;84.50;;;;;;2104003;28;20023;-68
2022/02/28 02:26:15;;;;;;;6.97;5.55;;;3.60;84.70;;;;;;2101019;28;20066;-68
2022/02/28 02:27:15;;;;;;;9.43;6.38;;;3.60;84.80;;;;;;2099784;28;20097;-67
2022/02/28 02:28:19;;;;;;;8.82;5.88;;;3.60;84.90;;;;;;2101880;28;20031;-68
2022/02/28 02:29:19;;;;;;;9.48;6.13;;;3.50;85.00;;;;;;2102348;28;20020;-68
2022/02/28 02:30:21;;;;;;;8.30;5.60;;;3.50;85.80;;;;;;2101781;28;20031;-67
2022/02/28 02:31:21;;;;;;;6.38;5.72;;;3.50;85.60;;;;;;2103120;28;20139;-67
2022/02/28 02:32:22;;;;;;;6.00;5.28;;;3.50;86.70;;;;;;2103600;28;20051;-67
2022/02/28 02:33:23;;;;;;;6.88;5.70;;;3.40;86.20;;;;;;2103938;28;20468;-67
2022/02/28 02:34:24;;;;;;;8.48;5.90;;;3.40;86.60;;;;;;2102926;28;20028;-68
2022/02/28 02:35:25;;;;;;;6.20;5.60;;;3.40;86.60;;;;;;2105627;28;20453;-67
2022/02/28 02:36:25;;;;;;;8.15;6.00;;;3.40;86.90;;;;;;2104799;28;20027;-68
2022/02/28 02:37:26;;;;;;;7.05;5.60;;;3.30;87.40;;;;;;2101700;28;20026;-68
2022/02/28 02:38:27;;;;;;;7.05;5.72;;;3.30;87.80;;;;;;2106809;28;20100;-68
2022/02/28 02:39:28;;;;;;;5.72;5.10;;;3.30;88.20;;;;;;2102532;28;20024;-68
2022/02/28 02:40:29;;;;;;;7.10;5.95;;;3.30;88.30;;;;;;2102905;28;20090;-67
2022/02/28 02:41:29;;;;;;;6.30;5.55;;;3.30;88.50;;;;;;2106490;28;20672;-67
2022/02/28 02:42:30;;;;;;;6.25;5.35;;;3.30;88.80;;;;;;2099694;28;20043;-67
2022/02/28 02:43:30;;;;;;;7.53;6.00;;;3.20;89.00;;;;;;2105099;28;20020;-67
2022/02/28 02:44:32;;;;;;;6.20;5.30;;;3.30;89.20;;;;;;2104016;28;20027;-67
2022/02/28 02:45:33;;;;;;;7.63;5.88;;;3.20;89.30;;;;;;2101282;28;20085;-67
2022/02/28 02:46:44;;;;;;;7.07;5.95;;;3.20;89.50;;;;;;2104788;28;20145;-67
2022/02/28 02:47:44;;;;;;;7.38;5.85;;;3.20;90.40;;;;;;2102706;28;20028;-67
2022/02/28 02:48:45;;;;;;;7.35;6.05;;;3.10;90.00;;;;;;2103419;28;20028;-67
2022/02/28 02:49:45;;;;;;;6.20;5.43;;;3.20;90.10;;;;;;2106774;28;20069;-68
2022/02/28 02:50:46;;;;;;;8.32;5.47;;;3.10;90.40;;;;;;2100522;28;20103;-68
2022/02/28 02:51:47;;;;;;;8.15;5.60;;;3.10;90.60;;;;;;2103488;28;20027;-68
2022/02/28 02:52:48;;;;;;;7.43;5.80;;;3.10;90.70;;;;;;2103081;28;20021;-67
2022/02/28 02:53:48;;;;;;;9.25;5.90;;;3.10;90.70;;;;;;2101285;28;20020;-68
2022/02/28 02:54:49;;;;;;;7.47;5.72;;;3.00;90.90;;;;;;2107607;28;20370;-68
2022/02/28 02:55:49;;;;;;;7.85;5.47;;;3.00;91.10;;;;;;2100826;28;20032;-67
2022/02/28 02:56:50;;;;;;;5.93;5.22;;;3.00;91.40;;;;;;2101424;28;20024;-67
2022/02/28 02:57:50;;;;;;;8.80;5.47;;;2.90;91.60;;;;;;2104825;28;20047;-67
2022/02/28 02:58:51;;;;;;;6.80;5.72;;;3.00;91.70;;;;;;2104126;28;20719;-68
2022/02/28 02:59:52;;;;;;;6.82;4.90;;;2.90;91.70;;;;;;2103479;28;20135;-67
2022/02/28 03:00:53;;;;;;;6.75;5.65;;;2.90;92.10;;;;;;2102868;28;20023;-67
2022/02/28 03:01:54;;;;;;;6.88;5.20;;;2.90;92.30;;;;;;2099790;28;20345;-67
2022/02/28 03:02:55;;;;;;;7.47;6.07;;;2.90;92.40;;;;;;2105987;28;20066;-68
2022/02/28 03:03:56;;;;;;;6.22;5.43;;;2.90;92.40;;;;;;2104882;28;20028;-68
2022/02/28 03:04:56;;;;;;;8.02;5.47;;;2.90;92.60;;;;;;2105904;28;20069;-67
2022/02/28 03:05:57;;;;;;;8.32;5.88;;;2.80;92.70;;;;;;2102903;28;20066;-67
2022/02/28 03:06:57;;;;;;;7.25;5.30;;;2.90;92.90;;;;;;2104839;28;20017;-67
2022/02/28 03:07:58;;;;;;;9.00;6.18;;;2.80;92.90;;;;;;2100679;28;20033;-67
2022/02/28 03:08:58;;;;;;;8.98;5.85;;;2.80;93.00;;;;;;2105764;28;20103;-69
2022/02/28 03:09:59;;;;;;;7.85;5.40;;;2.80;93.00;;;;;;2103225;28;20024;-68
2022/02/28 03:10:59;;;;;;;7.63;5.65;;;2.80;93.10;;;;;;2104977;28;20473;-67
2022/02/28 03:12:00;;;;;;;5.95;5.35;;;2.80;93.10;;;;;;2103953;28;20039;-68
2022/02/28 03:13:01;;;;;;;6.90;5.60;;;2.80;93.10;;;;;;2104565;28;20028;-68
2022/02/28 03:14:01;;;;;;;6.10;5.50;;;2.70;93.30;;;;;;2100931;28;20028;-67
2022/02/28 03:15:03;;;;;;;6.82;5.70;;;2.70;93.30;;;;;;2101631;28;20498;-67
2022/02/28 03:16:04;;;;;;;8.30;6.07;;;2.70;93.40;;;;;;2106021;28;20039;-67
2022/02/28 03:17:05;;;;;;;6.55;5.63;;;2.70;93.50;;;;;;2104886;28;20031;-67
2022/02/28 03:18:05;;;;;;;7.15;5.72;;;2.70;93.70;;;;;;2102712;28;20036;-67
2022/02/28 03:19:06;;;;;;;8.18;5.68;;;2.70;93.80;;;;;;2105404;28;20032;-67
2022/02/28 03:20:07;;;;;;;6.78;5.18;;;2.70;94.00;;;;;;2103840;28;20075;-67
2022/02/28 03:21:08;;;;;;;7.10;5.32;;;2.60;94.20;;;;;;2102877;28;20032;-67
2022/02/28 03:22:08;;;;;;;6.40;5.53;;;2.60;94.30;;;;;;2100147;28;20039;-67
2022/02/28 03:23:09;;;;;;;7.50;5.75;;;2.60;94.30;;;;;;2102708;28;20024;-67
2022/02/28 03:24:10;;;;;;;9.32;5.63;;;2.60;94.40;;;;;;2105493;28;20758;-68
2022/02/28 03:25:11;;;;;;;7.75;5.55;;;2.60;94.50;;;;;;2103831;28;20094;-68
2022/02/28 03:26:11;;;;;;;7.53;5.72;;;2.60;94.60;;;;;;2102583;28;20032;-67
2022/02/28 03:27:12;;;;;;;6.70;5.93;;;2.50;94.70;;;;;;2102287;28;20032;-67
2022/02/28 03:28:12;;;;;;;7.85;5.53;;;2.50;94.90;;;;;;2103145;28;20089;-67
2022/02/28 03:29:13;;;;;;;6.93;5.88;;;2.50;95.20;;;;;;2102326;28;20515;-67
2022/02/28 03:30:14;;;;;;;8.05;5.40;;;2.50;95.70;;;;;;2106585;28;20059;-67
2022/02/28 03:31:14;;;;;;;7.15;5.70;;;2.50;95.50;;;;;;2103913;28;20028;-68
2022/02/28 03:32:15;;;;;;;6.85;5.50;;;2.50;95.50;;;;;;2103103;28;20518;-67
2022/02/28 03:33:15;;;;;;;7.10;6.15;;;2.50;95.60;;;;;;2106119;28;20030;-67
2022/02/28 03:34:16;;;;;;;6.72;5.55;;;2.40;95.90;;;;;;2103368;28;20031;-67
2022/02/28 03:35:16;;;;;;;6.55;5.80;;;2.40;96.00;;;;;;2102245;28;20073;-67
2022/02/28 03:36:17;;;;;;;6.82;5.38;;;2.40;96.10;;;;;;2105132;28;20035;-67
2022/02/28 03:37:17;;;;;;;7.00;5.32;;;2.40;96.10;;;;;;2104411;28;20113;-67
2022/02/28 03:38:18;;;;;;;5.93;5.38;;;2.40;96.00;;;;;;2105382;28;20071;-67
2022/02/28 03:39:18;;;;;;;7.22;5.40;;;2.40;96.10;;;;;;2104137;28;20047;-67
2022/02/28 03:40:19;;;;;;;6.20;5.22;;;2.40;96.20;;;;;;2104307;28;20028;-67
2022/02/28 03:41:20;;;;;;;6.65;5.72;;;2.40;96.30;;;;;;2105802;28;20169;-68
2022/02/28 03:42:20;;;;;;;8.85;6.15;;;2.30;96.40;;;;;;2102684;28;20036;-68
2022/02/28 03:43:21;;;;;;;7.45;6.07;;;2.30;96.60;;;;;;2101795;28;20738;-67
2022/02/28 03:44:22;;;;;;;6.55;5.28;;;2.30;96.60;;;;;;2103781;28;20029;-67
2022/02/28 03:45:24;;;;;;;7.97;5.30;;;2.30;96.60;;;;;;2100233;28;20024;-67
2022/02/28 03:46:24;;;;;;;7.00;5.85;;;2.30;96.70;;;;;;2104840;28;20099;-67
2022/02/28 03:47:25;;;;;;;6.05;5.30;;;2.30;96.80;;;;;;2103153;28;20115;-68
2022/02/28 03:48:25;;;;;;;7.30;5.90;;;2.30;96.90;;;;;;2098079;28;20706;-67
2022/02/28 03:49:26;;;;;;;6.53;5.75;;;2.20;96.90;;;;;;2105452;28;20039;-67
2022/02/28 03:50:26;;;;;;;7.47;5.57;;;2.20;97.10;;;;;;2101763;28;20090;-67
2022/02/28 03:51:27;;;;;;;6.95;5.47;;;2.20;97.20;;;;;;2107161;28;20033;-67
2022/02/28 03:52:27;;;;;;;5.95;4.93;;;2.20;97.40;;;;;;2104211;28;20467;-68
2022/02/28 03:53:28;;;;;;;5.65;5.15;;;2.20;97.50;;;;;;2100415;28;20029;-67
2022/02/28 03:54:28;;;;;;;9.68;5.90;;;2.20;97.70;;;;;;2107608;28;20031;-67
2022/02/28 03:55:29;;;;;;;7.78;6.22;;;2.20;97.80;;;;;;2106767;28;20043;-67
2022/02/28 03:56:30;;;;;;;6.10;5.50;;;2.20;98.10;;;;;;2099727;28;20074;-67
2022/02/28 03:57:30;;;;;;;7.63;6.07;;;2.10;98.40;;;;;;2106668;28;20099;-67
2022/02/28 03:58:35;;;;;;;8.40;5.85;;;2.10;98.50;;;;;;2101811;28;20020;-67
2022/02/28 03:59:35;;;;;;;6.47;5.35;;;2.10;98.60;;;;;;2104381;28;20105;-67
2022/02/28 04:00:36;;;;;;;7.95;5.93;;;2.10;98.80;;;;;;2101662;28;20062;-67
2022/02/28 04:01:36;;;;;;;7.75;6.00;;;2.00;98.90;;;;;;2100236;28;20027;-67
2022/02/28 04:02:37;;;;;;;6.45;5.82;;;2.00;99.10;;;;;;2105240;28;20020;-67
2022/02/28 04:03:38;;;;;;;8.13;5.75;;;2.00;99.30;;;;;;2102750;28;20054;-67
2022/02/28 04:04:38;;;;;;;6.30;5.47;;;2.00;99.20;;;;;;2103484;28;20017;-67
2022/02/28 04:05:39;;;;;;;7.70;5.65;;;2.00;99.30;;;;;;2102842;28;20043;-67
2022/02/28 04:06:43;;;;;;;8.77;5.97;;;2.00;99.30;;;;;;2100621;28;20024;-67
2022/02/28 04:07:44;;;;;;;6.85;6.07;;;2.00;99.40;;;;;;2106720;28;20079;-67
2022/02/28 04:08:45;;;;;;;7.40;5.65;;;2.00;99.90;;;;;;2103147;28;20492;-67
2022/02/28 04:09:45;;;;;;;6.18;5.03;;;1.90;99.80;;;;;;2104041;28;20706;-67
2022/02/28 04:10:46;;;;;;;6.45;5.65;;;2.00;99.80;;;;;;2106783;28;20012;-67
2022/02/28 04:11:46;;;;;;;6.68;5.32;;;1.90;99.80;;;;;;2104478;28;20028;-67
2022/02/28 04:12:47;;;;;;;6.60;5.90;;;1.90;99.90;;;;;;2103116;28;20020;-67
2022/02/28 04:13:48;;;;;;;7.40;5.72;;;1.90;99.90;;;;;;2103550;28;20924;-67
2022/02/28 04:14:48;;;;;;;8.93;6.05;;;1.90;99.90;;;;;;2102311;28;20020;-67
2022/02/28 04:15:49;;;;;;;7.05;5.80;;;1.90;99.90;;;;;;2105004;28;20037;-67
2022/02/28 04:16:49;;;;;;;7.22;5.55;;;1.90;99.90;;;;;;2103015;28;20081;-67
2022/02/28 04:17:50;;;;;;;6.03;5.43;;;1.80;99.90;;;;;;2105499;28;20496;-67
2022/02/28 04:18:50;;;;;;;6.93;5.80;;;1.80;99.90;;;;;;2103153;28;20024;-67
2022/02/28 04:19:51;;;;;;;7.65;6.20;;;1.80;99.90;;;;;;2103590;28;20050;-67
2022/02/28 04:20:51;;;;;;;8.43;6.65;;;1.80;99.90;;;;;;2106656;28;20084;-67
2022/02/28 04:21:52;;;;;;;7.70;5.57;;;1.80;99.90;;;;;;2103349;28;20028;-68
2022/02/28 04:22:52;;;;;;;6.50;5.57;;;1.80;99.90;;;;;;2103811;28;20039;-67
2022/02/28 04:23:53;;;;;;;6.50;5.47;;;1.80;99.90;;;;;;2106125;28;20406;-67
2022/02/28 04:24:53;;;;;;;7.85;5.93;;;1.80;99.90;;;;;;2102821;28;20028;-67
2022/02/28 04:25:54;;;;;;;7.97;6.10;;;1.80;99.90;;;;;;2104549;28;20424;-67
2022/02/28 04:26:55;;;;;;;7.50;6.10;;;1.70;99.90;;;;;;2104991;28;20024;-67
2022/02/28 04:27:56;;;;;;;7.65;5.78;;;1.70;99.90;;;;;;2103694;28;20127;-67
2022/02/28 04:28:57;;;;;;;6.72;5.70;;;1.70;99.90;;;;;;2102165;28;20083;-67
2022/02/28 04:29:57;;;;;;;7.75;5.75;;;1.70;99.90;;;;;;2103597;28;20026;-67
2022/02/28 04:30:58;;;;;;;6.28;5.22;;;1.70;99.90;;;;;;2102196;28;20028;-67
2022/02/28 04:32:00;;;;;;;6.78;5.63;;;1.70;99.90;;;;;;2105157;28;20519;-67
2022/02/28 04:33:01;;;;;;;6.90;5.65;;;1.70;99.90;;;;;;2102121;28;20391;-67
2022/02/28 04:34:02;;;;;;;7.13;5.88;;;1.70;99.90;;;;;;2104167;28;20032;-68
2022/02/28 04:35:02;;;;;;;7.50;6.47;;;1.60;99.90;;;;;;2107447;28;20043;-67
2022/02/28 04:36:03;;;;;;;6.22;5.40;;;1.60;99.90;;;;;;2102572;28;20050;-68
2022/02/28 04:37:04;;;;;;;6.95;6.03;;;1.60;99.90;;;;;;2105751;28;20532;-67
2022/02/28 04:38:05;;;;;;;7.97;5.47;;;1.60;99.90;;;;;;2104327;28;20028;-67
2022/02/28 04:39:05;;;;;;;7.28;6.10;;;1.60;99.90;;;;;;2101871;28;20039;-67
2022/02/28 04:40:07;;;;;;;9.07;5.75;;;1.60;99.90;;;;;;2104804;28;20127;-67
2022/02/28 04:41:07;;;;;;;6.85;5.90;;;1.60;99.90;;;;;;2104143;28;20032;-68
2022/02/28 04:42:08;;;;;;;5.82;5.10;;;1.60;99.90;;;;;;2106593;28;20070;-67
2022/02/28 04:43:09;;;;;;;7.18;5.50;;;1.60;99.90;;;;;;2105687;28;20028;-67
2022/02/28 04:44:09;;;;;;;6.78;5.82;;;1.60;99.90;;;;;;2103239;28;20032;-67
2022/02/28 04:45:10;;;;;;;7.78;5.65;;;1.50;99.90;;;;;;2104083;28;20115;-67
2022/02/28 04:46:11;;;;;;;8.50;5.53;;;1.50;99.90;;;;;;2104791;28;20449;-67
2022/02/28 04:47:11;;;;;;;7.82;5.18;;;1.50;99.90;;;;;;2102910;28;20092;-67
2022/02/28 04:48:12;;;;;;;6.13;5.45;;;1.50;99.90;;;;;;2100001;28;20086;-67
2022/02/28 04:49:12;;;;;;;6.15;5.30;;;1.50;99.90;;;;;;2104618;28;20486;-67
2022/02/28 04:50:13;;;;;;;6.70;5.72;;;1.50;99.90;;;;;;2105946;28;20075;-67
2022/02/28 04:51:13;;;;;;;8.02;5.60;;;1.50;99.90;;;;;;2104292;28;20391;-67
2022/02/28 04:52:14;;;;;;;8.13;5.90;;;1.50;99.90;;;;;;2103819;28;20024;-67
2022/02/28 04:53:14;;;;;;;6.90;5.88;;;1.50;99.90;;;;;;2104197;28;20102;-67
2022/02/28 04:54:15;;;;;;;5.95;5.28;;;1.50;99.90;;;;;;2104212;28;20058;-67
2022/02/28 04:55:15;;;;;;;6.57;5.80;;;1.50;99.90;;;;;;2100886;28;20115;-67
2022/02/28 04:56:16;;;;;;;7.50;5.65;;;1.40;99.90;;;;;;2107166;28;20039;-67
2022/02/28 04:57:16;;;;;;;8.10;5.72;;;1.40;99.90;;;;;;2103126;28;20485;-67
2022/02/28 04:58:18;;;;;;;9.45;5.95;;;1.40;99.90;;;;;;2105262;28;20067;-67
2022/02/28 04:59:19;;;;;;;7.53;5.43;;;1.40;99.90;;;;;;2103314;28;20042;-67
2022/02/28 05:00:20;;;;;;;7.40;6.05;;;1.40;99.90;;;;;;2102075;28;20034;-67
2022/02/28 05:01:20;;;;;;;9.30;6.28;;;1.40;99.90;;;;;;2101375;28;20032;-67
2022/02/28 05:02:21;;;;;;;9.02;6.45;;;1.40;99.90;;;;;;2103096;28;20024;-67
2022/02/28 05:03:21;;;;;;;8.65;6.10;;;1.40;99.90;;;;;;2101134;28;20059;-67
2022/02/28 05:04:22;;;;;;;9.07;6.22;;;1.40;99.90;;;;;;2106343;28;20024;-67
2022/02/28 05:05:22;;;;;;;6.82;5.78;;;1.30;99.90;;;;;;2101025;28;20538;-67
2022/02/28 05:06:23;;;;;;;6.40;5.80;;;1.30;99.90;;;;;;2103700;28;20047;-67
2022/02/28 05:07:23;;;;;;;8.45;6.55;;;1.30;99.90;;;;;;2107100;28;20026;-67
2022/02/28 05:08:24;;;;;;;6.55;5.47;;;1.30;99.90;;;;;;2100106;28;20062;-67
2022/02/28 05:09:24;;;;;;;6.90;5.60;;;1.30;99.90;;;;;;2109113;28;20494;-67
2022/02/28 05:10:25;;;;;;;7.63;5.80;;;1.30;99.90;;;;;;2105903;28;20032;-67
2022/02/28 05:11:26;;;;;;;7.13;6.43;;;1.20;99.90;;;;;;2100850;28;20029;-67
2022/02/28 05:12:26;;;;;;;7.75;6.25;;;1.30;99.90;;;;;;2105852;28;20024;-68
2022/02/28 05:13:27;;;;;;;9.77;6.38;;;1.20;99.90;;;;;;2100203;28;20520;-67
2022/02/28 05:14:28;;;;;;;7.65;6.50;;;1.20;99.90;;;;;;2103753;28;20487;-67
2022/02/28 05:15:28;;;;;;;8.80;6.20;;;1.20;99.90;;;;;;2102172;28;20618;-67
2022/02/28 05:16:29;;;;;;;8.70;6.75;;;1.20;99.90;;;;;;2101663;28;20028;-67
2022/02/28 05:17:30;;;;;;;5.93;5.38;;;1.20;99.90;;;;;;2102138;28;20036;-67
2022/02/28 05:18:30;;;;;;;7.72;5.78;;;1.20;99.90;;;;;;2103717;28;20438;-67
2022/02/28 05:19:31;;;;;;;8.48;6.93;;;1.10;99.90;;;;;;2100890;28;20024;-67
2022/02/28 05:20:31;;;;;;;7.05;6.00;;;1.10;99.90;;;;;;2104397;28;20028;-67
2022/02/28 05:21:32;;;;;;;9.00;5.75;;;1.20;99.90;;;;;;2100363;28;20041;-67